KOMK

Omak Airport

Omak, Washington, USA
METAR KOMK 182118Z AUTO 35008KT 3/4SM HZ VV019 31/07 A3011 RMK AO2 T03060067
Observed Flight Rules
Aug-18 @ 21:18 UTC (36 minutes ago) Instrument Flight Rules
Wind Visibility Clouds Conditions
350° at 8 knots 3/4 miles
  • Vertical visibility at 1,900' AGL
  • Haze
Temperatures Readings
Current 31°C / 88°F
Dewpoint 7°C / 45°F
Humidity 22%
Altimeter 30.11" Hg
Pressure 1020 hPa
Elevation 395
METAR KOMK 182118Z AUTO 35008KT 3/4SM HZ VV019 31/07 A3011 RMK AO2 T03060067
Observed Flight Rules
Aug-18 @ 21:18 UTC
(36 minutes ago)
LIFR
Wind Visibility
350° at 8 knots 3/4 miles
Clouds
  • Vertical visibility at 1,900' AGL
Conditions
  • Haze
Temperature Dewpoint
31°C / 88°F 7°C / 45°F
Humidity Altimeter Pressure
22% 30.11" Hg 1020 hPa